sensor_id;sensor_type;location;lat;lon;timestamp;P1;durP1;ratioP1;P2;durP2;ratioP2
28988;SDS011;16089;59.952;10.818;2022-08-01T00:02:10;8.85;;;5.82;;
28988;SDS011;16089;59.952;10.818;2022-08-01T00:04:36;8.38;;;6.25;;
28988;SDS011;16089;59.952;10.818;2022-08-01T00:07:03;9.23;;;7.78;;
28988;SDS011;16089;59.952;10.818;2022-08-01T00:09:29;8.98;;;6.45;;
28988;SDS011;16089;59.952;10.818;2022-08-01T00:11:56;10.77;;;6.80;;
28988;SDS011;16089;59.952;10.818;2022-08-01T00:14:22;9.15;;;6.68;;
28988;SDS011;16089;59.952;10.818;2022-08-01T00:16:48;9.07;;;6.82;;
28988;SDS011;16089;59.952;10.818;2022-08-01T00:19:16;10.65;;;7.35;;
28988;SDS011;16089;59.952;10.818;2022-08-01T00:21:43;10.00;;;7.20;;
28988;SDS011;16089;59.952;10.818;2022-08-01T00:24:09;10.20;;;7.78;;
28988;SDS011;16089;59.952;10.818;2022-08-01T00:26:35;12.80;;;7.35;;
28988;SDS011;16089;59.952;10.818;2022-08-01T00:29:02;12.00;;;7.57;;
28988;SDS011;16089;59.952;10.818;2022-08-01T00:31:28;10.02;;;7.18;;
28988;SDS011;16089;59.952;10.818;2022-08-01T00:33:54;11.50;;;8.00;;
28988;SDS011;16089;59.952;10.818;2022-08-01T00:36:22;9.73;;;6.72;;
28988;SDS011;16089;59.952;10.818;2022-08-01T00:38:49;11.18;;;7.95;;
28988;SDS011;16089;59.952;10.818;2022-08-01T00:41:15;10.38;;;7.63;;
28988;SDS011;16089;59.952;10.818;2022-08-01T00:43:41;11.13;;;7.57;;
28988;SDS011;16089;59.952;10.818;2022-08-01T00:46:08;11.32;;;7.90;;
28988;SDS011;16089;59.952;10.818;2022-08-01T00:48:34;9.40;;;7.78;;
28988;SDS011;16089;59.952;10.818;2022-08-01T00:51:01;13.02;;;8.05;;
28988;SDS011;16089;59.952;10.818;2022-08-01T00:53:29;10.90;;;7.28;;
28988;SDS011;16089;59.952;10.818;2022-08-01T00:55:55;8.93;;;6.80;;
28988;SDS011;16089;59.952;10.818;2022-08-01T00:58:22;11.10;;;7.07;;
28988;SDS011;16089;59.952;10.818;2022-08-01T01:00:49;12.32;;;6.68;;
28988;SDS011;16089;59.952;10.818;2022-08-01T01:03:15;11.43;;;7.75;;
28988;SDS011;16089;59.952;10.818;2022-08-01T01:05:44;8.27;;;6.40;;
28988;SDS011;16089;59.952;10.818;2022-08-01T01:08:16;10.05;;;7.13;;
28988;SDS011;16089;59.952;10.818;2022-08-01T01:10:46;9.65;;;6.82;;
28988;SDS011;16089;59.952;10.818;2022-08-01T01:13:16;10.40;;;6.65;;
28988;SDS011;16089;59.952;10.818;2022-08-01T01:15:45;8.48;;;6.72;;
28988;SDS011;16089;59.952;10.818;2022-08-01T01:18:12;9.40;;;7.00;;
28988;SDS011;16089;59.952;10.818;2022-08-01T01:20:40;12.05;;;7.63;;
28988;SDS011;16089;59.952;10.818;2022-08-01T01:23:12;10.13;;;7.47;;
28988;SDS011;16089;59.952;10.818;2022-08-01T01:25:44;10.10;;;6.88;;
28988;SDS011;16089;59.952;10.818;2022-08-01T01:28:14;8.65;;;6.72;;
28988;SDS011;16089;59.952;10.818;2022-08-01T01:30:43;9.63;;;7.60;;
28988;SDS011;16089;59.952;10.818;2022-08-01T01:33:10;10.90;;;7.65;;
28988;SDS011;16089;59.952;10.818;2022-08-01T01:35:41;9.02;;;6.65;;
28988;SDS011;16089;59.952;10.818;2022-08-01T01:38:10;11.38;;;8.27;;
28988;SDS011;16089;59.952;10.818;2022-08-01T01:40:38;10.23;;;7.82;;
28988;SDS011;16089;59.952;10.818;2022-08-01T01:43:05;11.82;;;7.60;;
28988;SDS011;16089;59.952;10.818;2022-08-01T01:45:34;10.68;;;8.13;;
28988;SDS011;16089;59.952;10.818;2022-08-01T01:48:03;10.70;;;8.50;;
28988;SDS011;16089;59.952;10.818;2022-08-01T01:50:30;12.68;;;8.50;;
28988;SDS011;16089;59.952;10.818;2022-08-01T01:52:57;10.98;;;7.57;;
28988;SDS011;16089;59.952;10.818;2022-08-01T01:55:25;11.48;;;8.68;;
28988;SDS011;16089;59.952;10.818;2022-08-01T01:57:52;12.68;;;8.88;;
28988;SDS011;16089;59.952;10.818;2022-08-01T02:00:19;12.20;;;8.35;;
28988;SDS011;16089;59.952;10.818;2022-08-01T02:02:46;11.85;;;8.15;;
28988;SDS011;16089;59.952;10.818;2022-08-01T02:05:14;9.55;;;7.75;;
28988;SDS011;16089;59.952;10.818;2022-08-01T02:07:41;11.65;;;8.88;;
28988;SDS011;16089;59.952;10.818;2022-08-01T02:10:07;9.32;;;7.97;;
28988;SDS011;16089;59.952;10.818;2022-08-01T02:12:36;11.20;;;8.43;;
28988;SDS011;16089;59.952;10.818;2022-08-01T02:15:04;11.23;;;6.82;;
28988;SDS011;16089;59.952;10.818;2022-08-01T02:17:31;11.55;;;8.02;;
28988;SDS011;16089;59.952;10.818;2022-08-01T02:19:58;11.73;;;8.27;;
28988;SDS011;16089;59.952;10.818;2022-08-01T02:22:27;8.77;;;6.30;;
28988;SDS011;16089;59.952;10.818;2022-08-01T02:24:56;11.20;;;7.25;;
28988;SDS011;16089;59.952;10.818;2022-08-01T02:27:25;9.32;;;6.18;;
28988;SDS011;16089;59.952;10.818;2022-08-01T02:29:56;9.52;;;6.68;;
28988;SDS011;16089;59.952;10.818;2022-08-01T02:32:26;9.63;;;7.20;;
28988;SDS011;16089;59.952;10.818;2022-08-01T02:34:53;12.57;;;7.40;;
28988;SDS011;16089;59.952;10.818;2022-08-01T02:37:22;9.38;;;6.32;;
28988;SDS011;16089;59.952;10.818;2022-08-01T02:39:51;10.20;;;8.27;;
28988;SDS011;16089;59.952;10.818;2022-08-01T02:42:18;9.35;;;6.50;;
28988;SDS011;16089;59.952;10.818;2022-08-01T02:44:45;12.88;;;7.22;;
28988;SDS011;16089;59.952;10.818;2022-08-01T02:47:12;10.65;;;7.03;;
28988;SDS011;16089;59.952;10.818;2022-08-01T02:49:41;10.20;;;6.60;;
28988;SDS011;16089;59.952;10.818;2022-08-01T02:52:09;12.18;;;7.38;;
28988;SDS011;16089;59.952;10.818;2022-08-01T02:54:36;11.13;;;6.47;;
28988;SDS011;16089;59.952;10.818;2022-08-01T02:57:05;9.93;;;6.68;;
28988;SDS011;16089;59.952;10.818;2022-08-01T02:59:32;12.57;;;7.90;;
28988;SDS011;16089;59.952;10.818;2022-08-01T03:02:00;11.20;;;8.23;;
28988;SDS011;16089;59.952;10.818;2022-08-01T03:04:29;13.18;;;6.60;;
28988;SDS011;16089;59.952;10.818;2022-08-01T03:06:56;9.13;;;6.45;;
28988;SDS011;16089;59.952;10.818;2022-08-01T03:09:23;8.07;;;7.20;;
28988;SDS011;16089;59.952;10.818;2022-08-01T03:11:51;11.65;;;7.45;;
28988;SDS011;16089;59.952;10.818;2022-08-01T03:14:20;11.32;;;7.85;;
28988;SDS011;16089;59.952;10.818;2022-08-01T03:16:46;13.82;;;8.50;;
28988;SDS011;16089;59.952;10.818;2022-08-01T03:19:14;8.68;;;7.07;;
28988;SDS011;16089;59.952;10.818;2022-08-01T03:21:40;10.60;;;7.05;;
28988;SDS011;16089;59.952;10.818;2022-08-01T03:24:09;8.57;;;7.07;;
28988;SDS011;16089;59.952;10.818;2022-08-01T03:26:36;10.02;;;7.03;;
28988;SDS011;16089;59.952;10.818;2022-08-01T03:29:04;7.80;;;6.65;;
28988;SDS011;16089;59.952;10.818;2022-08-01T03:31:34;8.05;;;6.43;;
28988;SDS011;16089;59.952;10.818;2022-08-01T03:34:01;10.07;;;7.70;;
28988;SDS011;16089;59.952;10.818;2022-08-01T03:36:27;10.13;;;6.53;;
28988;SDS011;16089;59.952;10.818;2022-08-01T03:38:55;7.88;;;5.85;;
28988;SDS011;16089;59.952;10.818;2022-08-01T03:41:23;11.52;;;6.45;;
28988;SDS011;16089;59.952;10.818;2022-08-01T03:43:51;6.93;;;6.18;;
28988;SDS011;16089;59.952;10.818;2022-08-01T03:46:20;9.18;;;6.40;;
28988;SDS011;16089;59.952;10.818;2022-08-01T03:48:48;8.30;;;5.68;;
28988;SDS011;16089;59.952;10.818;2022-08-01T03:51:16;8.68;;;5.63;;
28988;SDS011;16089;59.952;10.818;2022-08-01T03:53:44;8.32;;;5.07;;
28988;SDS011;16089;59.952;10.818;2022-08-01T03:56:11;6.93;;;4.95;;
28988;SDS011;16089;59.952;10.818;2022-08-01T03:58:39;5.85;;;4.22;;
28988;SDS011;16089;59.952;10.818;2022-08-01T04:01:05;5.90;;;4.15;;
28988;SDS011;16089;59.952;10.818;2022-08-01T04:03:34;6.70;;;4.20;;
28988;SDS011;16089;59.952;10.818;2022-08-01T04:06:04;6.30;;;4.30;;
28988;SDS011;16089;59.952;10.818;2022-08-01T04:08:33;4.75;;;3.80;;
28988;SDS011;16089;59.952;10.818;2022-08-01T04:11:00;6.65;;;3.90;;
28988;SDS011;16089;59.952;10.818;2022-08-01T04:13:27;6.25;;;5.00;;
28988;SDS011;16089;59.952;10.818;2022-08-01T04:15:53;5.85;;;3.53;;
28988;SDS011;16089;59.952;10.818;2022-08-01T04:18:19;4.75;;;3.30;;
28988;SDS011;16089;59.952;10.818;2022-08-01T04:20:46;4.50;;;3.25;;
28988;SDS011;16089;59.952;10.818;2022-08-01T04:23:13;6.55;;;3.40;;
28988;SDS011;16089;59.952;10.818;2022-08-01T04:25:41;5.80;;;2.92;;
28988;SDS011;16089;59.952;10.818;2022-08-01T04:28:09;4.07;;;3.00;;
28988;SDS011;16089;59.952;10.818;2022-08-01T04:30:41;3.92;;;2.92;;
28988;SDS011;16089;59.952;10.818;2022-08-01T04:33:08;5.35;;;2.72;;
28988;SDS011;16089;59.952;10.818;2022-08-01T04:35:36;3.25;;;2.20;;
28988;SDS011;16089;59.952;10.818;2022-08-01T04:38:05;2.85;;;1.92;;
28988;SDS011;16089;59.952;10.818;2022-08-01T04:40:34;4.00;;;1.95;;
28988;SDS011;16089;59.952;10.818;2022-08-01T04:43:01;4.07;;;2.10;;
28988;SDS011;16089;59.952;10.818;2022-08-01T04:45:27;3.15;;;1.90;;
28988;SDS011;16089;59.952;10.818;2022-08-01T04:47:54;2.50;;;1.77;;
28988;SDS011;16089;59.952;10.818;2022-08-01T04:50:22;4.50;;;2.03;;
28988;SDS011;16089;59.952;10.818;2022-08-01T04:52:49;2.35;;;1.60;;
28988;SDS011;16089;59.952;10.818;2022-08-01T04:55:16;2.25;;;1.73;;
28988;SDS011;16089;59.952;10.818;2022-08-01T04:57:44;3.17;;;2.05;;
28988;SDS011;16089;59.952;10.818;2022-08-01T05:00:12;2.83;;;1.80;;
28988;SDS011;16089;59.952;10.818;2022-08-01T05:02:39;3.40;;;1.60;;
28988;SDS011;16089;59.952;10.818;2022-08-01T05:05:06;4.82;;;1.70;;
28988;SDS011;16089;59.952;10.818;2022-08-01T05:07:32;3.83;;;1.55;;
28988;SDS011;16089;59.952;10.818;2022-08-01T05:10:01;2.85;;;1.70;;
28988;SDS011;16089;59.952;10.818;2022-08-01T05:12:27;2.50;;;1.52;;
28988;SDS011;16089;59.952;10.818;2022-08-01T05:14:55;1.92;;;1.40;;
28988;SDS011;16089;59.952;10.818;2022-08-01T05:17:21;2.38;;;1.27;;
28988;SDS011;16089;59.952;10.818;2022-08-01T05:19:48;2.00;;;1.30;;
28988;SDS011;16089;59.952;10.818;2022-08-01T05:22:14;4.10;;;1.20;;
28988;SDS011;16089;59.952;10.818;2022-08-01T05:24:40;2.53;;;1.00;;
28988;SDS011;16089;59.952;10.818;2022-08-01T05:27:07;1.40;;;1.00;;
28988;SDS011;16089;59.952;10.818;2022-08-01T05:29:34;2.47;;;1.30;;
28988;SDS011;16089;59.952;10.818;2022-08-01T05:32:02;1.90;;;1.20;;
28988;SDS011;16089;59.952;10.818;2022-08-01T05:34:28;2.30;;;1.52;;
28988;SDS011;16089;59.952;10.818;2022-08-01T05:36:55;3.63;;;1.73;;
28988;SDS011;16089;59.952;10.818;2022-08-01T05:39:21;3.28;;;1.60;;
28988;SDS011;16089;59.952;10.818;2022-08-01T05:41:47;2.40;;;1.40;;
28988;SDS011;16089;59.952;10.818;2022-08-01T05:44:14;1.55;;;1.17;;
28988;SDS011;16089;59.952;10.818;2022-08-01T05:46:40;2.15;;;1.30;;
28988;SDS011;16089;59.952;10.818;2022-08-01T05:49:08;1.85;;;1.27;;
28988;SDS011;16089;59.952;10.818;2022-08-01T05:51:34;1.80;;;1.30;;
28988;SDS011;16089;59.952;10.818;2022-08-01T05:54:01;1.80;;;1.20;;
28988;SDS011;16089;59.952;10.818;2022-08-01T05:56:28;1.80;;;1.10;;
28988;SDS011;16089;59.952;10.818;2022-08-01T05:58:54;2.10;;;1.40;;
28988;SDS011;16089;59.952;10.818;2022-08-01T06:01:21;3.63;;;1.25;;
28988;SDS011;16089;59.952;10.818;2022-08-01T06:03:47;2.40;;;1.35;;
28988;SDS011;16089;59.952;10.818;2022-08-01T06:06:15;1.52;;;1.00;;
28988;SDS011;16089;59.952;10.818;2022-08-01T06:08:41;1.33;;;0.90;;
28988;SDS011;16089;59.952;10.818;2022-08-01T06:11:08;1.40;;;0.90;;
28988;SDS011;16089;59.952;10.818;2022-08-01T06:13:34;3.17;;;0.93;;
28988;SDS011;16089;59.952;10.818;2022-08-01T06:16:00;2.60;;;1.08;;
28988;SDS011;16089;59.952;10.818;2022-08-01T06:18:27;1.67;;;1.17;;
28988;SDS011;16089;59.952;10.818;2022-08-01T06:20:53;1.77;;;1.10;;
28988;SDS011;16089;59.952;10.818;2022-08-01T06:23:21;2.67;;;1.10;;
28988;SDS011;16089;59.952;10.818;2022-08-01T06:25:48;1.85;;;1.00;;
28988;SDS011;16089;59.952;10.818;2022-08-01T06:28:14;1.20;;;0.90;;
28988;SDS011;16089;59.952;10.818;2022-08-01T06:30:41;3.20;;;1.13;;
28988;SDS011;16089;59.952;10.818;2022-08-01T06:33:07;1.85;;;1.00;;
28988;SDS011;16089;59.952;10.818;2022-08-01T06:35:33;2.65;;;1.27;;
28988;SDS011;16089;59.952;10.818;2022-08-01T06:38:00;5.57;;;1.10;;
28988;SDS011;16089;59.952;10.818;2022-08-01T06:40:29;1.77;;;0.98;;
28988;SDS011;16089;59.952;10.818;2022-08-01T06:42:55;1.30;;;0.90;;
28988;SDS011;16089;59.952;10.818;2022-08-01T06:45:21;1.75;;;1.20;;
28988;SDS011;16089;59.952;10.818;2022-08-01T06:47:49;1.90;;;0.88;;
28988;SDS011;16089;59.952;10.818;2022-08-01T06:50:16;1.40;;;1.00;;
28988;SDS011;16089;59.952;10.818;2022-08-01T06:52:43;4.05;;;1.20;;
28988;SDS011;16089;59.952;10.818;2022-08-01T06:55:09;2.03;;;1.23;;
28988;SDS011;16089;59.952;10.818;2022-08-01T06:57:42;2.30;;;1.23;;
28988;SDS011;16089;59.952;10.818;2022-08-01T07:00:11;1.80;;;1.07;;
28988;SDS011;16089;59.952;10.818;2022-08-01T07:02:38;2.08;;;1.10;;
28988;SDS011;16089;59.952;10.818;2022-08-01T07:05:04;2.17;;;1.00;;
28988;SDS011;16089;59.952;10.818;2022-08-01T07:07:31;3.13;;;1.13;;
28988;SDS011;16089;59.952;10.818;2022-08-01T07:09:57;1.55;;;0.90;;
28988;SDS011;16089;59.952;10.818;2022-08-01T07:12:24;1.63;;;0.90;;
28988;SDS011;16089;59.952;10.818;2022-08-01T07:14:51;1.20;;;0.90;;
28988;SDS011;16089;59.952;10.818;2022-08-01T07:17:18;2.15;;;1.05;;
28988;SDS011;16089;59.952;10.818;2022-08-01T07:19:45;1.35;;;0.93;;
28988;SDS011;16089;59.952;10.818;2022-08-01T07:22:11;1.42;;;1.00;;
28988;SDS011;16089;59.952;10.818;2022-08-01T07:24:39;1.88;;;1.10;;
28988;SDS011;16089;59.952;10.818;2022-08-01T07:27:06;2.75;;;0.80;;
28988;SDS011;16089;59.952;10.818;2022-08-01T07:29:33;1.33;;;1.08;;
28988;SDS011;16089;59.952;10.818;2022-08-01T07:32:01;1.73;;;0.90;;
28988;SDS011;16089;59.952;10.818;2022-08-01T07:34:27;1.80;;;0.80;;
28988;SDS011;16089;59.952;10.818;2022-08-01T07:36:53;1.95;;;0.82;;
28988;SDS011;16089;59.952;10.818;2022-08-01T07:39:20;1.08;;;0.77;;
28988;SDS011;16089;59.952;10.818;2022-08-01T07:41:46;1.40;;;0.75;;
28988;SDS011;16089;59.952;10.818;2022-08-01T07:44:13;2.70;;;1.00;;
28988;SDS011;16089;59.952;10.818;2022-08-01T07:46:40;1.33;;;0.85;;
28988;SDS011;16089;59.952;10.818;2022-08-01T07:49:07;1.67;;;0.93;;
28988;SDS011;16089;59.952;10.818;2022-08-01T07:51:34;2.08;;;1.02;;
28988;SDS011;16089;59.952;10.818;2022-08-01T07:54:00;2.28;;;1.00;;
28988;SDS011;16089;59.952;10.818;2022-08-01T07:56:27;2.47;;;1.27;;
28988;SDS011;16089;59.952;10.818;2022-08-01T07:58:53;2.15;;;1.10;;
28988;SDS011;16089;59.952;10.818;2022-08-01T08:01:19;4.60;;;1.77;;
28988;SDS011;16089;59.952;10.818;2022-08-01T08:03:46;2.42;;;1.10;;
28988;SDS011;16089;59.952;10.818;2022-08-01T08:06:13;4.30;;;1.38;;
28988;SDS011;16089;59.952;10.818;2022-08-01T08:08:40;2.15;;;1.00;;
28988;SDS011;16089;59.952;10.818;2022-08-01T08:11:06;5.32;;;1.17;;
28988;SDS011;16089;59.952;10.818;2022-08-01T08:13:32;1.80;;;0.77;;
28988;SDS011;16089;59.952;10.818;2022-08-01T08:15:59;4.55;;;0.90;;
28988;SDS011;16089;59.952;10.818;2022-08-01T08:18:25;1.67;;;0.80;;
28988;SDS011;16089;59.952;10.818;2022-08-01T08:20:51;1.08;;;0.65;;
28988;SDS011;16089;59.952;10.818;2022-08-01T08:23:19;2.55;;;0.90;;
28988;SDS011;16089;59.952;10.818;2022-08-01T08:26:03;1.02;;;0.70;;
28988;SDS011;16089;59.952;10.818;2022-08-01T08:28:30;1.42;;;0.60;;
28988;SDS011;16089;59.952;10.818;2022-08-01T08:30:56;1.25;;;0.80;;
28988;SDS011;16089;59.952;10.818;2022-08-01T08:33:23;2.58;;;0.82;;
28988;SDS011;16089;59.952;10.818;2022-08-01T08:35:49;1.30;;;0.70;;
28988;SDS011;16089;59.952;10.818;2022-08-01T08:38:15;1.55;;;0.82;;
28988;SDS011;16089;59.952;10.818;2022-08-01T08:40:43;1.20;;;0.70;;
28988;SDS011;16089;59.952;10.818;2022-08-01T08:43:10;2.35;;;0.70;;
28988;SDS011;16089;59.952;10.818;2022-08-01T08:45:37;3.95;;;0.70;;
28988;SDS011;16089;59.952;10.818;2022-08-01T08:48:04;1.15;;;0.60;;
28988;SDS011;16089;59.952;10.818;2022-08-01T08:50:31;0.65;;;0.50;;
28988;SDS011;16089;59.952;10.818;2022-08-01T08:52:58;0.70;;;0.50;;
28988;SDS011;16089;59.952;10.818;2022-08-01T08:55:26;2.65;;;0.70;;
28988;SDS011;16089;59.952;10.818;2022-08-01T08:57:55;0.98;;;0.50;;
28988;SDS011;16089;59.952;10.818;2022-08-01T09:00:22;0.90;;;0.60;;
28988;SDS011;16089;59.952;10.818;2022-08-01T09:02:49;2.35;;;0.60;;
28988;SDS011;16089;59.952;10.818;2022-08-01T09:05:17;1.10;;;0.50;;
28988;SDS011;16089;59.952;10.818;2022-08-01T09:07:50;1.38;;;0.80;;
28988;SDS011;16089;59.952;10.818;2022-08-01T09:10:16;1.85;;;0.60;;
28988;SDS011;16089;59.952;10.818;2022-08-01T09:15:29;1.23;;;0.52;;
28988;SDS011;16089;59.952;10.818;2022-08-01T09:18:03;1.88;;;0.52;;
28988;SDS011;16089;59.952;10.818;2022-08-01T09:20:29;0.47;;;0.45;;
28988;SDS011;16089;59.952;10.818;2022-08-01T09:22:56;1.50;;;0.50;;
28988;SDS011;16089;59.952;10.818;2022-08-01T09:25:22;1.20;;;0.60;;
28988;SDS011;16089;59.952;10.818;2022-08-01T09:27:49;2.45;;;0.70;;
28988;SDS011;16089;59.952;10.818;2022-08-01T09:30:29;1.73;;;0.50;;
28988;SDS011;16089;59.952;10.818;2022-08-01T09:33:03;1.48;;;0.60;;
28988;SDS011;16089;59.952;10.818;2022-08-01T09:35:30;1.38;;;0.60;;
28988;SDS011;16089;59.952;10.818;2022-08-01T09:38:11;2.45;;;0.55;;
28988;SDS011;16089;59.952;10.818;2022-08-01T09:40:44;1.42;;;0.60;;
28988;SDS011;16089;59.952;10.818;2022-08-01T09:43:11;0.88;;;0.40;;
28988;SDS011;16089;59.952;10.818;2022-08-01T09:45:39;4.07;;;1.08;;
28988;SDS011;16089;59.952;10.818;2022-08-01T09:48:05;2.67;;;0.80;;
28988;SDS011;16089;59.952;10.818;2022-08-01T09:50:38;2.50;;;0.60;;
28988;SDS011;16089;59.952;10.818;2022-08-01T09:53:04;2.90;;;0.60;;
28988;SDS011;16089;59.952;10.818;2022-08-01T09:55:31;0.55;;;0.30;;
28988;SDS011;16089;59.952;10.818;2022-08-01T09:57:58;2.22;;;0.45;;
28988;SDS011;16089;59.952;10.818;2022-08-01T10:00:26;0.70;;;0.60;;
28988;SDS011;16089;59.952;10.818;2022-08-01T10:02:54;3.08;;;0.50;;
28988;SDS011;16089;59.952;10.818;2022-08-01T10:05:29;0.50;;;0.30;;
28988;SDS011;16089;59.952;10.818;2022-08-01T10:07:56;2.65;;;0.60;;
28988;SDS011;16089;59.952;10.818;2022-08-01T10:10:23;1.15;;;0.68;;
28988;SDS011;16089;59.952;10.818;2022-08-01T10:12:49;2.97;;;0.80;;
28988;SDS011;16089;59.952;10.818;2022-08-01T10:15:17;2.20;;;0.70;;
28988;SDS011;16089;59.952;10.818;2022-08-01T10:17:46;3.47;;;0.88;;
28988;SDS011;16089;59.952;10.818;2022-08-01T10:20:14;1.80;;;0.70;;
28988;SDS011;16089;59.952;10.818;2022-08-01T10:22:41;1.85;;;0.60;;
28988;SDS011;16089;59.952;10.818;2022-08-01T10:25:08;0.93;;;0.50;;
28988;SDS011;16089;59.952;10.818;2022-08-01T10:27:35;0.85;;;0.60;;
28988;SDS011;16089;59.952;10.818;2022-08-01T10:30:03;2.17;;;0.73;;
28988;SDS011;16089;59.952;10.818;2022-08-01T10:32:30;1.15;;;0.60;;
28988;SDS011;16089;59.952;10.818;2022-08-01T10:34:56;0.98;;;0.70;;
28988;SDS011;16089;59.952;10.818;2022-08-01T10:37:24;1.05;;;0.40;;
28988;SDS011;16089;59.952;10.818;2022-08-01T10:39:51;1.33;;;0.73;;
28988;SDS011;16089;59.952;10.818;2022-08-01T10:42:18;1.15;;;0.60;;
28988;SDS011;16089;59.952;10.818;2022-08-01T10:44:45;1.27;;;0.50;;
28988;SDS011;16089;59.952;10.818;2022-08-01T10:47:13;0.90;;;0.50;;
28988;SDS011;16089;59.952;10.818;2022-08-01T10:49:40;1.40;;;0.52;;
28988;SDS011;16089;59.952;10.818;2022-08-01T10:52:13;1.42;;;0.40;;
28988;SDS011;16089;59.952;10.818;2022-08-01T10:54:41;2.15;;;0.55;;
28988;SDS011;16089;59.952;10.818;2022-08-01T10:57:07;1.63;;;0.90;;
28988;SDS011;16089;59.952;10.818;2022-08-01T10:59:35;1.33;;;0.73;;
28988;SDS011;16089;59.952;10.818;2022-08-01T11:02:05;1.80;;;0.40;;
28988;SDS011;16089;59.952;10.818;2022-08-01T11:04:32;2.55;;;0.50;;
28988;SDS011;16089;59.952;10.818;2022-08-01T11:07:03;1.67;;;0.50;;
28988;SDS011;16089;59.952;10.818;2022-08-01T11:09:31;1.23;;;0.50;;
28988;SDS011;16089;59.952;10.818;2022-08-01T11:12:06;0.85;;;0.50;;
28988;SDS011;16089;59.952;10.818;2022-08-01T11:14:34;0.77;;;0.47;;
28988;SDS011;16089;59.952;10.818;2022-08-01T11:20:07;4.60;;;0.60;;
28988;SDS011;16089;59.952;10.818;2022-08-01T11:25:18;0.60;;;0.40;;
28988;SDS011;16089;59.952;10.818;2022-08-01T11:27:46;0.93;;;0.32;;
28988;SDS011;16089;59.952;10.818;2022-08-01T11:30:22;1.17;;;0.40;;
28988;SDS011;16089;59.952;10.818;2022-08-01T11:32:51;2.13;;;0.40;;
28988;SDS011;16089;59.952;10.818;2022-08-01T11:35:18;0.88;;;0.40;;
28988;SDS011;16089;59.952;10.818;2022-08-01T11:37:45;1.23;;;0.55;;
28988;SDS011;16089;59.952;10.818;2022-08-01T11:40:16;2.40;;;0.50;;
28988;SDS011;16089;59.952;10.818;2022-08-01T11:42:42;1.33;;;0.52;;
28988;SDS011;16089;59.952;10.818;2022-08-01T11:45:10;1.40;;;0.50;;
28988;SDS011;16089;59.952;10.818;2022-08-01T11:47:42;2.03;;;0.40;;
28988;SDS011;16089;59.952;10.818;2022-08-01T11:50:18;2.10;;;0.45;;
28988;SDS011;16089;59.952;10.818;2022-08-01T11:52:56;1.75;;;0.47;;
28988;SDS011;16089;59.952;10.818;2022-08-01T11:55:23;3.05;;;0.30;;
28988;SDS011;16089;59.952;10.818;2022-08-01T11:57:49;1.58;;;0.30;;
28988;SDS011;16089;59.952;10.818;2022-08-01T12:00:17;1.00;;;0.32;;
28988;SDS011;16089;59.952;10.818;2022-08-01T12:02:44;1.25;;;0.40;;
28988;SDS011;16089;59.952;10.818;2022-08-01T12:05:12;2.80;;;0.40;;
28988;SDS011;16089;59.952;10.818;2022-08-01T12:07:39;1.38;;;0.40;;
28988;SDS011;16089;59.952;10.818;2022-08-01T12:10:06;0.45;;;0.30;;
28988;SDS011;16089;59.952;10.818;2022-08-01T12:12:33;0.63;;;0.20;;
28988;SDS011;16089;59.952;10.818;2022-08-01T12:15:02;2.60;;;0.43;;
28988;SDS011;16089;59.952;10.818;2022-08-01T12:17:33;1.33;;;0.30;;
28988;SDS011;16089;59.952;10.818;2022-08-01T12:20:00;2.13;;;0.40;;
28988;SDS011;16089;59.952;10.818;2022-08-01T12:22:26;2.05;;;0.50;;
28988;SDS011;16089;59.952;10.818;2022-08-01T12:24:53;0.90;;;0.40;;
28988;SDS011;16089;59.952;10.818;2022-08-01T12:27:26;0.50;;;0.30;;
28988;SDS011;16089;59.952;10.818;2022-08-01T12:29:53;2.83;;;0.28;;
28988;SDS011;16089;59.952;10.818;2022-08-01T12:32:23;1.60;;;0.30;;
28988;SDS011;16089;59.952;10.818;2022-08-01T12:34:52;1.65;;;0.25;;
28988;SDS011;16089;59.952;10.818;2022-08-01T12:37:18;0.35;;;0.30;;
28988;SDS011;16089;59.952;10.818;2022-08-01T12:39:45;0.82;;;0.20;;
28988;SDS011;16089;59.952;10.818;2022-08-01T12:42:12;0.70;;;0.30;;
28988;SDS011;16089;59.952;10.818;2022-08-01T12:44:39;0.73;;;0.20;;
28988;SDS011;16089;59.952;10.818;2022-08-01T12:47:06;2.95;;;0.30;;
28988;SDS011;16089;59.952;10.818;2022-08-01T12:49:33;0.80;;;0.40;;
28988;SDS011;16089;59.952;10.818;2022-08-01T12:52:02;0.75;;;0.30;;
28988;SDS011;16089;59.952;10.818;2022-08-01T12:54:29;0.43;;;0.30;;
28988;SDS011;16089;59.952;10.818;2022-08-01T12:56:55;0.82;;;0.30;;
28988;SDS011;16089;59.952;10.818;2022-08-01T12:59:23;1.98;;;0.30;;
28988;SDS011;16089;59.952;10.818;2022-08-01T13:01:50;2.10;;;0.40;;
28988;SDS011;16089;59.952;10.818;2022-08-01T13:04:17;2.28;;;0.45;;
28988;SDS011;16089;59.952;10.818;2022-08-01T13:06:43;0.32;;;0.22;;
28988;SDS011;16089;59.952;10.818;2022-08-01T13:09:11;1.70;;;0.30;;
28988;SDS011;16089;59.952;10.818;2022-08-01T13:11:38;1.65;;;0.38;;
28988;SDS011;16089;59.952;10.818;2022-08-01T13:14:05;0.85;;;0.30;;
28988;SDS011;16089;59.952;10.818;2022-08-01T13:16:31;0.40;;;0.22;;
28988;SDS011;16089;59.952;10.818;2022-08-01T13:18:58;0.98;;;0.30;;
28988;SDS011;16089;59.952;10.818;2022-08-01T13:21:24;0.93;;;0.30;;
28988;SDS011;16089;59.952;10.818;2022-08-01T13:24:01;0.63;;;0.20;;
28988;SDS011;16089;59.952;10.818;2022-08-01T13:26:39;0.20;;;0.20;;
28988;SDS011;16089;59.952;10.818;2022-08-01T13:29:05;0.88;;;0.30;;
28988;SDS011;16089;59.952;10.818;2022-08-01T13:31:32;1.05;;;0.38;;
28988;SDS011;16089;59.952;10.818;2022-08-01T13:33:59;0.40;;;0.20;;
28988;SDS011;16089;59.952;10.818;2022-08-01T13:36:25;0.70;;;0.20;;
28988;SDS011;16089;59.952;10.818;2022-08-01T13:38:53;1.10;;;0.30;;
28988;SDS011;16089;59.952;10.818;2022-08-01T13:41:38;1.17;;;0.30;;
28988;SDS011;16089;59.952;10.818;2022-08-01T13:44:05;1.02;;;0.20;;
28988;SDS011;16089;59.952;10.818;2022-08-01T13:46:33;0.35;;;0.20;;
28988;SDS011;16089;59.952;10.818;2022-08-01T13:49:00;0.43;;;0.20;;
28988;SDS011;16089;59.952;10.818;2022-08-01T13:51:26;1.27;;;0.30;;
28988;SDS011;16089;59.952;10.818;2022-08-01T13:53:52;1.13;;;0.20;;
28988;SDS011;16089;59.952;10.818;2022-08-01T13:56:19;0.90;;;0.30;;
28988;SDS011;16089;59.952;10.818;2022-08-01T13:58:47;0.55;;;0.20;;
28988;SDS011;16089;59.952;10.818;2022-08-01T14:01:13;1.75;;;0.30;;
28988;SDS011;16089;59.952;10.818;2022-08-01T14:03:40;2.42;;;0.20;;
28988;SDS011;16089;59.952;10.818;2022-08-01T14:06:06;0.77;;;0.20;;
28988;SDS011;16089;59.952;10.818;2022-08-01T14:08:32;0.25;;;0.10;;
28988;SDS011;16089;59.952;10.818;2022-08-01T14:10:59;1.05;;;0.30;;
28988;SDS011;16089;59.952;10.818;2022-08-01T14:13:25;0.40;;;0.20;;
28988;SDS011;16089;59.952;10.818;2022-08-01T14:15:54;1.13;;;0.10;;
28988;SDS011;16089;59.952;10.818;2022-08-01T14:18:21;0.43;;;0.20;;
28988;SDS011;16089;59.952;10.818;2022-08-01T14:20:47;0.20;;;0.10;;
28988;SDS011;16089;59.952;10.818;2022-08-01T14:23:13;0.82;;;0.20;;
28988;SDS011;16089;59.952;10.818;2022-08-01T14:25:40;2.05;;;1.00;;
28988;SDS011;16089;59.952;10.818;2022-08-01T14:28:07;1.02;;;0.20;;
28988;SDS011;16089;59.952;10.818;2022-08-01T14:30:33;2.40;;;0.40;;
28988;SDS011;16089;59.952;10.818;2022-08-01T14:33:01;1.02;;;0.30;;
28988;SDS011;16089;59.952;10.818;2022-08-01T14:35:27;2.08;;;0.20;;
28988;SDS011;16089;59.952;10.818;2022-08-01T14:37:54;0.45;;;0.10;;
28988;SDS011;16089;59.952;10.818;2022-08-01T14:40:20;1.77;;;0.30;;
28988;SDS011;16089;59.952;10.818;2022-08-01T14:42:46;0.30;;;0.10;;
28988;SDS011;16089;59.952;10.818;2022-08-01T14:45:14;0.10;;;0.10;;